Time;durP1;ratioP1;P1;durP2;ratioP2;P2;SDS_P1;SDS_P2;PMS_P1;PMS_P2;Temp;Humidity;BMP_temperature;BMP_pressure;BME280_temperature;BME280_humidity;BME280_pressure;Samples;Min_cycle;Max_cycle;Signal;HPM_P1;HPM_P2
2023/04/23 00:01:26;;;;;;;8.00;7.60;;;15.90;25.50;;;;;;5005505;28;20416;-60
2023/04/23 00:03:56;;;;;;;7.70;7.30;;;15.90;25.70;;;;;;5005168;28;21039;-60
2023/04/23 00:06:25;;;;;;;6.83;6.53;;;15.90;26.10;;;;;;5004687;28;20424;-61
2023/04/23 00:08:53;;;;;;;7.17;6.63;;;15.90;25.90;;;;;;5004320;28;20842;-62
2023/04/23 00:11:18;;;;;;;7.40;7.00;;;15.90;25.80;;;;;;5003727;28;20928;-60
2023/04/23 00:13:46;;;;;;;7.47;7.07;;;15.80;26.70;;;;;;5004554;28;21133;-61
2023/04/23 00:16:12;;;;;;;7.30;6.90;;;15.80;26.40;;;;;;5003558;28;20194;-61
2023/04/23 00:18:38;;;;;;;7.57;7.17;;;15.70;26.70;;;;;;5003530;28;20420;-61
2023/04/23 00:21:04;;;;;;;7.40;7.03;;;15.70;27.10;;;;;;5002548;28;20435;-60
2023/04/23 00:23:29;;;;;;;7.50;7.10;;;15.70;27.10;;;;;;5003036;28;20282;-60
2023/04/23 00:25:55;;;;;;;7.10;6.70;;;15.70;27.10;;;;;;5002543;28;20880;-60
2023/04/23 00:28:21;;;;;;;7.10;6.70;;;15.60;27.40;;;;;;5004996;28;20240;-61
2023/04/23 00:30:46;;;;;;;7.23;6.83;;;15.60;28.50;;;;;;5002591;28;20183;-61
2023/04/23 00:33:12;;;;;;;7.40;7.00;;;15.50;28.40;;;;;;5004309;28;20209;-61
2023/04/23 00:35:38;;;;;;;8.10;7.70;;;15.50;29.60;;;;;;5002628;28;20627;-60
2023/04/23 00:38:04;;;;;;;8.00;7.60;;;15.40;29.80;;;;;;5004123;28;20184;-61
2023/04/23 00:40:29;;;;;;;8.30;7.90;;;15.30;29.60;;;;;;5005264;28;20621;-61
2023/04/23 00:42:57;;;;;;;8.30;7.80;;;15.30;32.10;;;;;;5002099;28;20443;-61
2023/04/23 00:45:22;;;;;;;8.13;7.53;;;15.20;30.10;;;;;;5005680;28;20272;-61
2023/04/23 00:47:48;;;;;;;7.53;7.13;;;15.20;31.10;;;;;;5003682;28;21008;-61
2023/04/23 00:50:14;;;;;;;8.83;8.20;;;15.20;31.10;;;;;;5011015;28;20185;-61
2023/04/23 00:52:40;;;;;;;9.77;8.87;;;15.10;32.80;;;;;;5002461;28;20979;-60
2023/04/23 00:55:07;;;;;;;7.80;7.40;;;15.10;32.80;;;;;;5003779;28;20419;-60
2023/04/23 00:57:35;;;;;;;8.03;7.63;;;15.10;32.20;;;;;;5004187;28;20181;-61
2023/04/23 01:00:01;;;;;;;8.33;7.77;;;15.10;32.20;;;;;;5003057;28;20802;-61
2023/04/23 01:02:29;;;;;;;9.07;8.60;;;15.10;32.60;;;;;;5002497;28;20444;-60
2023/04/23 01:04:56;;;;;;;8.43;7.93;;;15.10;33.90;;;;;;5004361;28;20928;-61
2023/04/23 01:07:22;;;;;;;8.10;7.77;;;15.00;33.50;;;;;;5002658;28;20478;-61
2023/04/23 01:09:50;;;;;;;8.80;8.30;;;15.00;34.60;;;;;;5000102;28;20522;-57
2023/04/23 01:12:16;;;;;;;8.60;8.20;;;15.00;35.90;;;;;;5007080;28;20456;-57
2023/04/23 01:14:42;;;;;;;9.20;8.60;;;15.00;34.80;;;;;;5007243;28;20416;-57
2023/04/23 01:17:08;;;;;;;9.27;8.63;;;15.00;34.20;;;;;;5006113;28;20916;-57
2023/04/23 01:19:35;;;;;;;8.83;8.43;;;14.90;35.00;;;;;;5003873;28;20452;-58
2023/04/23 01:22:01;;;;;;;7.90;7.60;;;15.00;35.30;;;;;;5006719;28;20892;-57
2023/04/23 01:24:30;;;;;;;8.50;8.20;;;15.00;34.80;;;;;;5006507;28;20435;-61
2023/04/23 01:26:57;;;;;;;8.90;8.27;;;15.00;35.90;;;;;;5006654;28;20511;-60
2023/04/23 01:29:24;;;;;;;8.80;8.37;;;15.00;35.70;;;;;;5006876;28;20519;-61
2023/04/23 01:31:50;;;;;;;9.17;8.50;;;15.00;33.60;;;;;;5005889;28;20419;-61
2023/04/23 01:34:16;;;;;;;9.00;8.50;;;15.00;34.00;;;;;;5005578;28;20886;-61
2023/04/23 01:36:42;;;;;;;9.07;8.50;;;15.00;34.50;;;;;;5006796;28;20470;-61
2023/04/23 01:39:08;;;;;;;8.87;8.47;;;15.00;35.30;;;;;;5006220;28;20431;-61
2023/04/23 01:41:35;;;;;;;8.20;7.90;;;14.90;35.00;;;;;;5008449;28;20416;-61
2023/04/23 01:44:01;;;;;;;9.03;8.47;;;14.90;34.50;;;;;;5005740;28;20527;-60
2023/04/23 01:46:27;;;;;;;9.50;8.90;;;14.80;34.70;;;;;;5007405;28;20511;-60
2023/04/23 01:48:53;;;;;;;8.40;8.00;;;14.80;34.10;;;;;;5004755;28;20231;-60
2023/04/23 01:51:19;;;;;;;8.43;7.90;;;14.90;35.80;;;;;;5005308;28;20424;-61
2023/04/23 01:53:44;;;;;;;8.33;7.90;;;14.90;34.50;;;;;;5006148;28;20208;-60
2023/04/23 01:56:10;;;;;;;8.67;8.07;;;14.90;34.40;;;;;;5004628;28;20451;-61
2023/04/23 01:58:36;;;;;;;9.13;8.50;;;14.90;34.70;;;;;;5005842;28;20200;-60
2023/04/23 02:01:02;;;;;;;7.60;7.30;;;14.80;33.70;;;;;;5005820;28;20916;-61
2023/04/23 02:03:29;;;;;;;7.20;6.93;;;14.80;34.20;;;;;;5003675;28;20455;-60
2023/04/23 02:05:55;;;;;;;8.27;7.87;;;14.80;34.70;;;;;;5002489;28;20188;-61
2023/04/23 02:08:21;;;;;;;8.70;8.30;;;14.70;35.60;;;;;;5003302;28;20432;-61
2023/04/23 02:10:47;;;;;;;7.80;7.50;;;14.80;35.70;;;;;;5005000;28;20416;-61
2023/04/23 02:13:13;;;;;;;9.10;8.70;;;14.70;34.80;;;;;;5002952;28;20845;-61
2023/04/23 02:15:39;;;;;;;8.63;8.23;;;14.70;35.60;;;;;;5005464;28;20187;-60
2023/04/23 02:18:05;;;;;;;9.00;8.57;;;14.70;35.60;;;;;;5004803;28;20916;-61
2023/04/23 02:20:31;;;;;;;8.30;7.90;;;14.60;35.50;;;;;;5005393;28;20177;-61
2023/04/23 02:22:57;;;;;;;8.80;8.40;;;14.60;36.50;;;;;;5005038;28;20811;-61
2023/04/23 02:25:22;;;;;;;8.93;8.33;;;14.70;36.00;;;;;;5005683;28;20794;-60
2023/04/23 02:27:49;;;;;;;9.00;8.63;;;14.60;38.20;;;;;;5004439;28;20228;-61
2023/04/23 02:30:15;;;;;;;8.60;8.13;;;14.60;40.30;;;;;;5005169;28;20264;-61
2023/04/23 02:32:41;;;;;;;8.40;8.00;;;14.50;38.30;;;;;;5005083;28;20593;-60
2023/04/23 02:35:09;;;;;;;9.17;8.70;;;14.50;39.10;;;;;;5004147;28;20197;-61
2023/04/23 02:37:35;;;;;;;8.40;8.10;;;14.50;41.10;;;;;;5005278;28;20435;-61
2023/04/23 02:40:03;;;;;;;8.20;7.80;;;14.40;39.70;;;;;;5005035;28;20840;-60
2023/04/23 02:42:29;;;;;;;8.37;7.97;;;14.50;40.30;;;;;;5003035;28;20947;-60
2023/04/23 02:44:55;;;;;;;8.93;8.43;;;14.50;41.20;;;;;;5003694;28;20416;-60
2023/04/23 02:47:20;;;;;;;8.53;8.13;;;14.40;41.70;;;;;;5003484;28;20272;-61
2023/04/23 02:49:46;;;;;;;8.87;8.47;;;14.30;42.10;;;;;;5003973;28;20212;-61
2023/04/23 02:52:11;;;;;;;8.57;8.27;;;14.30;41.70;;;;;;5002123;28;20184;-60
2023/04/23 02:54:37;;;;;;;8.00;7.53;;;14.30;42.10;;;;;;5002621;28;20185;-60
2023/04/23 02:57:04;;;;;;;8.03;7.73;;;14.30;42.20;;;;;;5003482;28;20174;-60
2023/04/23 02:59:29;;;;;;;8.40;8.03;;;14.20;43.00;;;;;;5003177;28;20264;-61
2023/04/23 03:01:55;;;;;;;8.33;8.03;;;14.00;43.10;;;;;;5003178;28;20444;-61
2023/04/23 03:04:21;;;;;;;8.30;7.80;;;14.00;43.80;;;;;;5004324;28;20271;-60
2023/04/23 03:06:47;;;;;;;8.50;8.10;;;14.00;44.70;;;;;;5004091;28;20196;-60
2023/04/23 03:09:12;;;;;;;8.17;7.87;;;14.00;45.10;;;;;;5004599;28;20511;-60
2023/04/23 03:11:38;;;;;;;8.40;8.07;;;14.00;45.10;;;;;;5005766;28;20187;-60
2023/04/23 03:14:04;;;;;;;7.57;7.27;;;14.00;45.20;;;;;;5002155;28;20263;-61
2023/04/23 03:16:30;;;;;;;7.90;7.67;;;14.00;45.10;;;;;;5004814;28;20272;-60
2023/04/23 03:18:57;;;;;;;7.50;7.10;;;14.10;45.20;;;;;;5002123;28;20929;-58
2023/04/23 03:21:23;;;;;;;8.10;7.80;;;14.10;45.20;;;;;;4999801;28;20420;-56
2023/04/23 03:23:48;;;;;;;8.17;7.87;;;14.10;46.20;;;;;;4999377;28;20439;-57
2023/04/23 03:26:14;;;;;;;7.70;7.40;;;14.10;46.50;;;;;;5001405;28;20247;-57
2023/04/23 03:28:40;;;;;;;8.10;7.70;;;14.00;45.10;;;;;;5001506;28;20228;-58
2023/04/23 03:31:05;;;;;;;8.40;8.00;;;14.10;45.30;;;;;;5003330;28;20185;-58
2023/04/23 03:33:31;;;;;;;8.70;8.30;;;14.10;45.70;;;;;;5001078;28;20625;-58
2023/04/23 03:35:57;;;;;;;9.20;8.70;;;14.10;45.30;;;;;;5002591;28;20181;-58
2023/04/23 03:38:22;;;;;;;8.27;7.97;;;14.00;45.40;;;;;;5004767;28;20224;-57
2023/04/23 03:40:48;;;;;;;8.00;7.60;;;14.10;46.50;;;;;;5002265;28;20416;-58
2023/04/23 03:43:14;;;;;;;8.23;7.83;;;14.10;46.70;;;;;;5005813;28;20638;-58
2023/04/23 03:45:40;;;;;;;7.60;7.30;;;14.10;47.30;;;;;;5003852;28;20209;-58
2023/04/23 03:48:05;;;;;;;7.10;6.87;;;14.00;48.10;;;;;;5002137;28;20854;-57
2023/04/23 03:50:33;;;;;;;7.60;7.20;;;14.00;49.10;;;;;;5006259;28;20596;-57
2023/04/23 03:52:59;;;;;;;8.00;7.67;;;14.10;48.20;;;;;;5006288;28;20266;-58
2023/04/23 03:55:25;;;;;;;7.50;7.20;;;14.40;47.20;;;;;;5008333;28;20427;-57
2023/04/23 03:57:50;;;;;;;8.20;7.90;;;14.50;45.60;;;;;;5008470;28;20916;-57
2023/04/23 04:00:16;;;;;;;7.27;6.97;;;14.50;45.60;;;;;;5007455;28;20182;-57
2023/04/23 04:02:42;;;;;;;7.63;7.33;;;14.30;47.10;;;;;;5008892;28;20196;-57
2023/04/23 04:05:09;;;;;;;7.17;6.87;;;14.20;47.10;;;;;;5008761;28;20508;-57
2023/04/23 04:07:36;;;;;;;7.50;7.30;;;14.10;46.90;;;;;;5005457;28;20188;-58
2023/04/23 04:10:03;;;;;;;7.50;7.20;;;14.10;47.50;;;;;;4989402;28;20488;-57
2023/04/23 04:12:29;;;;;;;8.00;7.70;;;14.10;45.60;;;;;;4988909;28;21006;-58
2023/04/23 04:14:55;;;;;;;8.03;7.60;;;14.10;45.80;;;;;;4989636;28;20517;-57
2023/04/23 04:17:20;;;;;;;7.67;7.37;;;14.00;45.10;;;;;;4989872;28;20182;-58
2023/04/23 04:19:46;;;;;;;7.10;6.80;;;14.00;45.80;;;;;;4991487;28;20623;-57
2023/04/23 04:22:12;;;;;;;7.00;6.80;;;14.00;45.10;;;;;;5009601;28;20189;-57
2023/04/23 04:24:40;;;;;;;8.00;7.60;;;14.10;45.30;;;;;;5010361;28;20440;-58
2023/04/23 04:27:06;;;;;;;7.90;7.50;;;14.00;45.10;;;;;;5008915;28;20216;-60
2023/04/23 04:29:32;;;;;;;7.73;7.43;;;14.00;45.50;;;;;;5011227;28;20438;-61
2023/04/23 04:31:58;;;;;;;7.40;6.90;;;13.80;45.00;;;;;;5010425;28;20421;-60
2023/04/23 04:34:25;;;;;;;8.13;7.63;;;13.80;46.30;;;;;;5011034;28;20267;-61
2023/04/23 04:36:52;;;;;;;7.90;7.53;;;13.70;46.70;;;;;;5011387;28;20979;-60
2023/04/23 04:39:18;;;;;;;8.60;8.10;;;13.70;46.50;;;;;;5009702;28;20515;-60
2023/04/23 04:41:45;;;;;;;7.70;7.37;;;13.70;45.90;;;;;;5010693;28;20432;-60
2023/04/23 04:44:13;;;;;;;8.03;7.77;;;13.70;45.80;;;;;;5024071;28;20513;-60
2023/04/23 04:46:39;;;;;;;7.50;7.00;;;13.70;45.50;;;;;;5033327;28;20886;-60
2023/04/23 04:49:11;;;;;;;7.93;7.63;;;13.70;46.30;;;;;;5033376;28;20506;-60
2023/04/23 04:51:38;;;;;;;7.57;7.27;;;13.90;46.00;;;;;;5033686;28;20419;-61
2023/04/23 04:54:05;;;;;;;7.07;6.80;;;14.00;45.10;;;;;;5034513;28;20466;-60
2023/04/23 04:56:30;;;;;;;7.90;7.60;;;14.20;44.60;;;;;;5033463;28;20879;-61
2023/04/23 04:58:56;;;;;;;8.33;8.03;;;14.30;43.50;;;;;;5034795;28;20462;-61
2023/04/23 05:01:24;;;;;;;7.47;7.27;;;14.40;42.90;;;;;;5033362;28;20318;-60
2023/04/23 05:03:49;;;;;;;7.43;7.13;;;14.50;42.20;;;;;;5034684;28;20224;-60
2023/04/23 05:06:15;;;;;;;7.63;7.40;;;14.60;41.90;;;;;;5034550;28;20500;-60
2023/04/23 05:08:46;;;;;;;7.70;7.40;;;14.60;41.40;;;;;;5034631;28;20181;-61
2023/04/23 05:11:13;;;;;;;8.60;8.30;;;14.60;41.20;;;;;;5032838;28;20184;-60
2023/04/23 05:13:40;;;;;;;8.10;7.80;;;14.70;40.50;;;;;;5033307;28;20979;-60
2023/04/23 05:16:05;;;;;;;8.33;8.03;;;14.70;40.20;;;;;;5034328;28;20416;-60
2023/04/23 05:18:31;;;;;;;9.27;8.87;;;14.50;40.60;;;;;;5033038;28;20777;-60
2023/04/23 05:20:57;;;;;;;8.70;8.30;;;14.40;42.00;;;;;;5029647;28;20172;-60
2023/04/23 05:23:22;;;;;;;9.07;8.67;;;14.30;41.70;;;;;;5032618;28;20275;-60
2023/04/23 05:25:50;;;;;;;8.20;7.90;;;14.40;42.00;;;;;;5033689;28;20246;-60
2023/04/23 05:28:16;;;;;;;8.13;7.80;;;14.40;42.10;;;;;;5024888;28;20574;-61
2023/04/23 05:30:42;;;;;;;9.30;8.90;;;14.40;42.00;;;;;;5014555;28;20431;-61
2023/04/23 05:33:08;;;;;;;9.27;8.87;;;14.40;43.20;;;;;;5010626;28;20227;-61
2023/04/23 05:35:33;;;;;;;10.90;10.30;;;14.50;43.60;;;;;;5012886;28;20905;-61
2023/04/23 05:38:00;;;;;;;9.93;9.43;;;14.50;43.40;;;;;;5013531;28;20174;-60
2023/04/23 05:40:26;;;;;;;8.60;8.10;;;14.30;43.10;;;;;;5023069;28;20272;-61
2023/04/23 05:42:51;;;;;;;8.80;8.50;;;14.40;43.50;;;;;;5033187;28;20506;-60
2023/04/23 05:45:17;;;;;;;9.50;9.00;;;14.30;42.70;;;;;;5032073;28;20697;-60
2023/04/23 05:47:43;;;;;;;8.30;8.00;;;14.30;44.00;;;;;;5031671;28;20272;-61
2023/04/23 05:50:10;;;;;;;8.67;8.30;;;14.20;44.20;;;;;;5031713;28;20173;-60
2023/04/23 05:52:36;;;;;;;8.60;8.40;;;14.10;43.70;;;;;;5022845;28;20205;-61
2023/04/23 05:55:02;;;;;;;8.80;8.50;;;14.00;44.90;;;;;;5012278;28;20729;-61
2023/04/23 05:57:27;;;;;;;7.87;7.67;;;14.00;45.40;;;;;;5010560;28;20416;-60
2023/04/23 05:59:53;;;;;;;7.60;7.30;;;14.10;45.30;;;;;;5012147;28;20423;-61
2023/04/23 06:02:19;;;;;;;8.07;7.77;;;14.10;45.10;;;;;;5011943;28;20185;-60
2023/04/23 06:04:44;;;;;;;7.70;7.40;;;14.10;44.10;;;;;;5010837;28;20243;-61
2023/04/23 06:07:11;;;;;;;7.70;7.50;;;14.20;44.40;;;;;;5012658;28;20181;-60
2023/04/23 06:09:37;;;;;;;8.17;7.87;;;14.20;44.40;;;;;;5012745;28;20178;-61
2023/04/23 06:12:02;;;;;;;8.43;8.13;;;14.30;44.00;;;;;;5011845;28;20913;-61
2023/04/23 06:14:28;;;;;;;7.80;7.50;;;14.30;43.80;;;;;;5012510;28;20213;-61
2023/04/23 06:16:54;;;;;;;7.63;7.43;;;14.40;43.90;;;;;;5011875;28;20178;-60
2023/04/23 06:19:20;;;;;;;8.37;8.07;;;14.40;44.40;;;;;;5011713;28;20173;-59
2023/04/23 06:21:45;;;;;;;8.37;8.07;;;14.30;42.80;;;;;;5011966;28;20547;-60
2023/04/23 06:24:11;;;;;;;8.17;7.77;;;14.30;43.50;;;;;;5009127;28;20248;-61
2023/04/23 06:26:37;;;;;;;8.20;7.90;;;14.30;44.40;;;;;;5008197;28;20182;-60
2023/04/23 06:29:02;;;;;;;8.47;8.00;;;14.30;43.20;;;;;;5008497;28;20185;-61
2023/04/23 06:31:28;;;;;;;8.23;7.90;;;14.30;43.40;;;;;;5008590;28;20788;-61
2023/04/23 06:33:54;;;;;;;8.27;7.97;;;14.30;42.80;;;;;;5009053;28;20213;-62
2023/04/23 06:36:20;;;;;;;7.53;7.33;;;14.30;42.90;;;;;;5011710;28;20771;-62
2023/04/23 06:38:45;;;;;;;8.60;8.20;;;14.30;42.40;;;;;;5011500;28;20189;-61
2023/04/23 06:41:12;;;;;;;8.47;8.17;;;14.20;42.00;;;;;;5011000;28;20181;-62
2023/04/23 06:43:38;;;;;;;7.23;7.03;;;14.20;42.50;;;;;;5011714;28;20185;-62
2023/04/23 06:46:03;;;;;;;7.10;6.90;;;14.30;43.30;;;;;;5012585;28;20486;-61
2023/04/23 06:48:31;;;;;;;8.03;7.73;;;14.30;42.00;;;;;;5012059;28;20921;-61
2023/04/23 06:50:57;;;;;;;7.73;7.43;;;14.40;42.00;;;;;;5010534;28;20649;-60
2023/04/23 06:53:22;;;;;;;7.13;6.93;;;14.50;41.60;;;;;;5009414;28;20456;-61
2023/04/23 06:55:50;;;;;;;6.90;6.70;;;14.60;40.60;;;;;;5012116;28;20420;-60
2023/04/23 06:58:16;;;;;;;7.70;7.50;;;14.60;40.60;;;;;;5010408;28;20534;-60
2023/04/23 07:00:41;;;;;;;7.87;7.57;;;14.70;40.50;;;;;;5012213;28;20416;-57
2023/04/23 07:03:07;;;;;;;7.53;7.33;;;14.70;39.80;;;;;;5011687;28;20944;-58
2023/04/23 07:05:33;;;;;;;7.30;7.00;;;14.70;39.50;;;;;;5012595;28;20552;-58
2023/04/23 07:07:58;;;;;;;7.60;7.37;;;14.70;39.40;;;;;;5012513;28;20278;-58
2023/04/23 07:10:24;;;;;;;6.73;6.53;;;14.70;38.40;;;;;;5011058;28;20182;-58
2023/04/23 07:12:50;;;;;;;7.43;7.03;;;14.80;38.00;;;;;;5008606;28;20205;-58
2023/04/23 07:15:15;;;;;;;7.40;7.10;;;14.80;37.30;;;;;;5011244;28;20511;-59
2023/04/23 07:17:41;;;;;;;7.87;7.37;;;14.70;36.40;;;;;;5009597;28;20561;-58
2023/04/23 07:20:07;;;;;;;7.60;7.30;;;14.70;36.10;;;;;;5012497;28;20240;-58
2023/04/23 07:22:33;;;;;;;7.67;7.47;;;14.80;35.90;;;;;;5011058;28;20192;-58
2023/04/23 07:25:04;;;;;;;8.57;8.27;;;14.70;35.70;;;;;;5011241;28;20459;-57
2023/04/23 07:27:30;;;;;;;7.80;7.60;;;14.80;34.90;;;;;;5011299;28;20439;-58
2023/04/23 07:29:55;;;;;;;7.13;6.93;;;14.90;35.70;;;;;;5010755;28;20502;-62
2023/04/23 07:32:24;;;;;;;7.27;7.00;;;14.90;34.90;;;;;;5009647;28;20421;-58
2023/04/23 07:34:51;;;;;;;7.33;7.13;;;14.90;34.70;;;;;;5010164;28;20177;-58
2023/04/23 07:37:16;;;;;;;7.13;6.93;;;14.90;34.40;;;;;;5010319;28;20421;-59
2023/04/23 07:39:42;;;;;;;7.50;7.30;;;15.00;34.30;;;;;;5012228;28;20749;-61
2023/04/23 07:42:08;;;;;;;7.07;6.87;;;15.20;34.30;;;;;;5010322;28;20181;-61
2023/04/23 07:44:33;;;;;;;7.50;7.30;;;15.30;33.80;;;;;;5011230;28;20185;-62
2023/04/23 07:46:59;;;;;;;7.37;7.07;;;15.40;33.90;;;;;;5011040;28;20181;-61
2023/04/23 07:49:25;;;;;;;7.93;7.63;;;15.40;34.20;;;;;;5011135;28;20185;-61
2023/04/23 07:51:50;;;;;;;8.20;7.80;;;15.50;34.40;;;;;;5011306;28;20205;-61
2023/04/23 07:54:16;;;;;;;8.10;7.90;;;15.40;34.20;;;;;;5011624;28;20295;-61
2023/04/23 07:56:42;;;;;;;8.60;8.30;;;15.50;33.80;;;;;;5011769;28;20205;-61
2023/04/23 07:59:08;;;;;;;8.80;8.40;;;15.50;33.40;;;;;;5011590;28;20218;-61
2023/04/23 08:01:34;;;;;;;8.47;8.13;;;15.50;33.20;;;;;;5011064;28;20189;-61
2023/04/23 08:04:00;;;;;;;7.80;7.60;;;15.60;33.10;;;;;;5009536;28;20436;-61
2023/04/23 08:06:26;;;;;;;7.50;7.30;;;15.60;33.10;;;;;;5010676;28;20676;-61
2023/04/23 08:08:54;;;;;;;7.70;7.37;;;15.60;33.50;;;;;;5011386;28;20328;-61
2023/04/23 08:11:20;;;;;;;8.00;7.70;;;15.70;33.20;;;;;;5010923;28;20412;-61
2023/04/23 08:13:46;;;;;;;7.57;7.27;;;15.60;29.30;;;;;;5011287;28;20494;-62
2023/04/23 08:16:11;;;;;;;7.90;7.70;;;15.60;28.90;;;;;;5011260;28;20177;-62
2023/04/23 08:18:37;;;;;;;7.70;7.40;;;15.60;28.30;;;;;;5009440;28;20260;-61
2023/04/23 08:21:03;;;;;;;8.00;7.70;;;15.60;28.40;;;;;;5010370;28;20216;-61
2023/04/23 08:23:29;;;;;;;8.33;8.03;;;15.70;28.70;;;;;;5009718;28;20181;-61
2023/04/23 08:25:55;;;;;;;8.17;7.87;;;15.80;28.80;;;;;;5010619;28;20476;-61
2023/04/23 08:28:20;;;;;;;8.07;7.67;;;15.80;28.70;;;;;;5010708;28;20178;-61
2023/04/23 08:30:46;;;;;;;8.50;8.20;;;15.80;28.40;;;;;;5011239;28;20181;-61
2023/04/23 08:33:12;;;;;;;12.67;11.90;;;15.80;28.40;;;;;;5009879;28;20201;-62
2023/04/23 08:35:38;;;;;;;8.40;8.10;;;15.80;28.80;;;;;;5009906;28;20205;-61
2023/04/23 08:38:03;;;;;;;8.20;7.90;;;15.80;29.10;;;;;;5010353;28;20455;-61
2023/04/23 08:40:30;;;;;;;8.30;8.00;;;15.70;29.00;;;;;;5010523;28;20177;-61
2023/04/23 08:43:00;;;;;;;7.70;7.40;;;15.70;29.00;;;;;;5009433;28;20177;-62
2023/04/23 08:45:26;;;;;;;8.40;8.10;;;15.80;29.10;;;;;;5010406;28;20508;-62
2023/04/23 08:47:56;;;;;;;7.90;7.60;;;15.80;28.40;;;;;;5011097;28;20413;-62
2023/04/23 08:50:22;;;;;;;7.90;7.60;;;15.80;27.10;;;;;;5007739;28;20467;-61
2023/04/23 08:52:55;;;;;;;7.80;7.50;;;15.80;26.90;;;;;;5010380;28;20554;-62
2023/04/23 08:55:22;;;;;;;8.10;7.70;;;15.80;26.60;;;;;;4998330;28;20554;-62
2023/04/23 08:57:49;;;;;;;7.70;7.30;;;15.90;27.20;;;;;;5007930;28;20832;-61
2023/04/23 09:00:16;;;;;;;6.90;6.70;;;16.00;27.20;;;;;;5025328;28;20452;-62
2023/04/23 09:02:44;;;;;;;7.73;7.33;;;16.00;26.50;;;;;;5010298;28;20953;-62
2023/04/23 09:05:10;;;;;;;7.50;7.20;;;16.00;25.80;;;;;;5010806;28;20420;-61
2023/04/23 09:07:36;;;;;;;7.53;7.30;;;16.00;25.70;;;;;;5010856;28;20504;-61
2023/04/23 09:10:03;;;;;;;8.83;8.23;;;15.90;25.50;;;;;;5010088;28;20503;-60
2023/04/23 09:12:29;;;;;;;7.90;7.60;;;15.90;24.80;;;;;;5011432;28;20252;-59
2023/04/23 09:14:56;;;;;;;7.73;7.43;;;16.00;24.40;;;;;;5011146;28;20475;-61
2023/04/23 09:17:23;;;;;;;7.33;7.03;;;16.00;24.10;;;;;;5011098;28;20413;-60
2023/04/23 09:19:50;;;;;;;7.90;7.50;;;16.00;24.50;;;;;;5011113;28;20432;-61
2023/04/23 09:22:40;;;;;;;6.80;6.60;;;16.00;25.20;;;;;;5010566;28;20405;-61
2023/04/23 09:25:10;;;;;;;6.40;6.20;;;16.10;24.70;;;;;;5011169;28;20416;-61
2023/04/23 09:27:37;;;;;;;6.30;6.10;;;16.10;23.90;;;;;;5011196;28;20408;-61
2023/04/23 09:30:08;;;;;;;6.40;6.20;;;16.20;24.40;;;;;;5011224;28;20518;-61
2023/04/23 09:32:35;;;;;;;6.33;6.13;;;16.40;23.80;;;;;;5013511;28;20834;-60
2023/04/23 09:35:09;;;;;;;7.00;6.70;;;16.30;24.00;;;;;;5014695;28;20413;-60
2023/04/23 09:37:36;;;;;;;6.80;6.60;;;16.30;23.90;;;;;;5014535;28;20478;-61
2023/04/23 09:40:07;;;;;;;6.53;6.23;;;16.50;23.20;;;;;;5014313;28;20490;-61
2023/04/23 09:42:33;;;;;;;6.20;6.00;;;16.60;22.80;;;;;;5013714;28;20416;-61
2023/04/23 09:45:03;;;;;;;6.37;6.07;;;16.80;22.00;;;;;;5014498;28;20908;-61
2023/04/23 09:47:48;;;;;;;6.30;6.00;;;16.90;20.60;;;;;;5015987;28;20404;-61
2023/04/23 09:50:14;;;;;;;6.93;6.63;;;17.00;20.20;;;;;;5014581;28;20757;-61
2023/04/23 09:52:40;;;;;;;6.60;6.30;;;17.20;20.90;;;;;;5013938;28;20463;-62
2023/04/23 09:55:06;;;;;;;6.47;6.17;;;17.40;20.70;;;;;;5014680;28;20603;-57
2023/04/23 09:57:40;;;;;;;6.57;6.37;;;17.60;19.50;;;;;;5014510;28;20416;-57
2023/04/23 10:00:18;;;;;;;6.17;5.97;;;17.70;20.10;;;;;;5014717;28;20801;-57
2023/04/23 10:02:48;;;;;;;6.33;6.13;;;17.80;19.30;;;;;;5014006;28;20812;-57
2023/04/23 10:05:19;;;;;;;6.40;6.20;;;17.90;19.50;;;;;;5015453;28;20491;-57
2023/04/23 10:07:47;;;;;;;5.90;5.70;;;18.00;19.20;;;;;;5014379;28;20775;-57
2023/04/23 10:10:13;;;;;;;5.97;5.67;;;18.20;18.70;;;;;;5014311;28;20412;-57
2023/04/23 10:12:40;;;;;;;5.27;5.07;;;18.30;17.50;;;;;;5014186;28;20462;-57
2023/04/23 10:15:06;;;;;;;5.10;5.00;;;18.40;16.80;;;;;;5014372;28;20443;-57
2023/04/23 10:17:36;;;;;;;6.37;6.07;;;18.50;16.50;;;;;;5014378;28;20754;-58
2023/04/23 10:20:02;;;;;;;5.83;5.63;;;18.60;17.10;;;;;;5013591;28;20424;-57
2023/04/23 10:22:30;;;;;;;6.30;6.10;;;18.60;16.60;;;;;;5013137;28;20474;-59
2023/04/23 10:24:59;;;;;;;6.30;6.10;;;18.50;17.60;;;;;;5013353;28;20444;-61
2023/04/23 10:27:27;;;;;;;6.70;6.50;;;18.50;17.00;;;;;;5012792;28;20427;-60
2023/04/23 10:29:53;;;;;;;5.20;5.03;;;18.40;16.80;;;;;;5009671;28;20421;-57
2023/04/23 10:32:19;;;;;;;5.57;5.37;;;18.40;16.50;;;;;;4993970;28;20990;-57
2023/04/23 10:34:47;;;;;;;5.47;5.37;;;18.30;17.10;;;;;;4999785;28;20420;-61
2023/04/23 10:37:14;;;;;;;5.93;5.73;;;18.30;15.10;;;;;;5012248;28;20425;-59
2023/04/23 10:39:43;;;;;;;6.20;5.97;;;18.20;15.50;;;;;;5022626;28;20442;-60
2023/04/23 10:42:09;;;;;;;6.20;5.80;;;18.40;16.00;;;;;;5024576;28;20890;-59
2023/04/23 10:44:40;;;;;;;6.60;6.10;;;18.50;16.80;;;;;;5012287;28;20415;-60
2023/04/23 10:47:12;;;;;;;6.47;6.23;;;18.50;17.10;;;;;;5013119;28;20427;-60
2023/04/23 10:49:38;;;;;;;5.00;4.80;;;18.60;16.90;;;;;;5013301;28;20470;-56
2023/04/23 10:52:09;;;;;;;5.50;5.30;;;18.60;17.40;;;;;;5012185;28;20772;-60
2023/04/23 10:54:36;;;;;;;5.50;5.30;;;18.70;16.50;;;;;;5012576;28;20484;-61
2023/04/23 10:57:04;;;;;;;5.43;5.17;;;18.50;16.90;;;;;;5012459;28;20404;-60
2023/04/23 10:59:34;;;;;;;5.70;5.50;;;18.50;16.40;;;;;;5012590;28;20416;-60
2023/04/23 11:02:10;;;;;;;5.53;5.33;;;18.50;16.60;;;;;;5012008;28;20801;-60
2023/04/23 11:05:05;;;;;;;5.50;5.30;;;18.50;16.90;;;;;;5012538;28;20435;-60
2023/04/23 11:07:32;;;;;;;5.43;5.07;;;18.50;16.20;;;;;;5012025;28;20413;-60
2023/04/23 11:09:59;;;;;;;5.30;5.10;;;18.40;17.00;;;;;;5011947;28;20448;-59
2023/04/23 11:12:25;;;;;;;4.87;4.77;;;18.30;17.10;;;;;;5011685;28;20404;-60
2023/04/23 11:14:53;;;;;;;5.10;5.00;;;18.30;17.00;;;;;;5012281;28;20440;-59
2023/04/23 11:17:42;;;;;;;5.30;5.10;;;18.40;17.10;;;;;;5012031;28;20431;-59
2023/04/23 11:20:19;;;;;;;4.73;4.63;;;18.40;17.30;;;;;;5004309;28;20417;-61
2023/04/23 11:22:46;;;;;;;5.50;5.30;;;18.50;17.30;;;;;;5011779;28;20427;-60
2023/04/23 11:25:27;;;;;;;5.13;5.03;;;18.50;17.50;;;;;;5012078;28;20421;-60
2023/04/23 11:27:54;;;;;;;5.57;5.27;;;18.40;17.20;;;;;;5005864;28;20419;-60
2023/04/23 11:30:29;;;;;;;5.23;5.13;;;18.40;17.10;;;;;;5010330;28;20417;-60
2023/04/23 11:32:58;;;;;;;5.10;4.90;;;18.40;17.30;;;;;;5010748;28;20459;-60
2023/04/23 11:35:29;;;;;;;4.97;4.77;;;18.30;17.40;;;;;;5011228;28;20834;-60
2023/04/23 11:37:55;;;;;;;5.30;5.10;;;18.20;18.00;;;;;;5001401;28;20452;-60
2023/04/23 11:40:23;;;;;;;5.37;5.17;;;18.30;17.70;;;;;;5012452;28;20484;-60
2023/04/23 11:42:53;;;;;;;5.53;5.33;;;18.20;17.50;;;;;;5010689;28;20433;-55
2023/04/23 11:45:19;;;;;;;5.43;5.23;;;18.30;17.70;;;;;;5014036;28;20440;-56
2023/04/23 11:47:46;;;;;;;5.23;5.03;;;18.40;17.30;;;;;;5021465;28;20424;-55
2023/04/23 11:50:27;;;;;;;6.07;5.87;;;18.40;17.70;;;;;;5022051;28;20684;-55
2023/04/23 11:52:53;;;;;;;5.00;4.80;;;18.50;17.00;;;;;;5019142;28;20499;-55
2023/04/23 11:55:20;;;;;;;4.80;4.70;;;18.60;16.50;;;;;;5019716;28;20415;-57
2023/04/23 11:57:48;;;;;;;5.00;4.83;;;18.70;16.30;;;;;;5021605;28;20419;-56
2023/04/23 12:00:22;;;;;;;5.17;4.90;;;18.70;15.80;;;;;;5013218;28;20788;-56
2023/04/23 12:02:52;;;;;;;4.50;4.40;;;18.80;15.80;;;;;;5020144;28;20451;-57
2023/04/23 12:05:39;;;;;;;4.43;4.33;;;18.80;15.60;;;;;;5019892;28;20735;-54
2023/04/23 12:08:09;;;;;;;4.63;4.53;;;18.80;15.80;;;;;;5013663;28;20507;-56
2023/04/23 12:10:59;;;;;;;4.90;4.80;;;18.90;16.20;;;;;;5015859;28;20443;-58
2023/04/23 12:13:37;;;;;;;5.00;4.90;;;18.90;17.10;;;;;;5019628;28;20478;-56
2023/04/23 12:16:04;;;;;;;4.90;4.80;;;18.80;16.10;;;;;;5019849;28;20426;-56
2023/04/23 12:18:36;;;;;;;4.60;4.40;;;18.80;15.60;;;;;;5012068;28;20423;-54
2023/04/23 12:21:06;;;;;;;4.60;4.47;;;18.80;15.90;;;;;;5011181;28;20419;-58
2023/04/23 12:23:34;;;;;;;5.00;4.70;;;18.70;16.10;;;;;;5012187;28;20427;-57
2023/04/23 12:26:00;;;;;;;4.87;4.67;;;18.80;16.10;;;;;;5013177;28;20432;-56
2023/04/23 12:28:26;;;;;;;5.10;4.90;;;18.70;16.30;;;;;;5012850;28;20424;-56
2023/04/23 12:30:52;;;;;;;5.40;5.10;;;18.70;15.90;;;;;;5012570;28;20190;-57
2023/04/23 12:33:19;;;;;;;4.13;4.03;;;18.70;16.20;;;;;;5006200;28;21011;-57
2023/04/23 12:35:54;;;;;;;4.30;4.20;;;18.70;16.50;;;;;;5019029;28;20192;-57
2023/04/23 12:38:29;;;;;;;4.70;4.50;;;18.70;16.50;;;;;;5019744;28;20410;-57
2023/04/23 12:40:57;;;;;;;4.87;4.57;;;18.70;16.60;;;;;;5019861;28;20435;-56
2023/04/23 12:43:23;;;;;;;4.30;4.10;;;18.80;16.70;;;;;;5019055;28;20791;-57
2023/04/23 12:45:50;;;;;;;4.40;4.30;;;18.90;16.70;;;;;;5019032;28;20505;-56